createdAt,value
2019-05-17T00:01:40.490Z,98048.05
2019-05-17T00:04:07.435Z,98039.69
2019-05-17T00:06:36.806Z,98029.14
2019-05-17T00:09:06.952Z,98034.56
2019-05-17T00:11:34.120Z,98033.20
2019-05-17T00:14:01.100Z,98025.17
2019-05-17T00:16:28.179Z,98028.42
2019-05-17T00:18:56.800Z,98024.41
2019-05-17T00:21:24.160Z,98021.84
2019-05-17T00:23:51.241Z,98017.61
2019-05-17T00:26:18.390Z,98020.05
2019-05-17T00:28:46.921Z,98023.10
2019-05-17T00:31:14.059Z,98013.48
2019-05-17T00:33:40.838Z,98014.63
2019-05-17T00:36:07.642Z,98013.77
2019-05-17T00:38:47.894Z,98004.58
2019-05-17T00:41:03.650Z,98002.34
2019-05-17T00:43:30.528Z,98000.37
2019-05-17T00:45:57.585Z,97999.64
2019-05-17T00:48:26.474Z,97995.44
2019-05-17T00:50:54.339Z,97999.72
2019-05-17T00:53:21.256Z,97996.04
2019-05-17T00:55:48.205Z,97998.45
2019-05-17T00:58:17.305Z,97990.06
2019-05-17T01:00:43.985Z,97987.66
2019-05-17T01:03:10.960Z,97992.01
2019-05-17T01:05:37.767Z,97985.56
2019-05-17T01:08:07.141Z,97978.99
2019-05-17T01:10:33.754Z,97983.75
2019-05-17T01:13:00.694Z,97982.23
2019-05-17T01:15:27.601Z,97979.72
2019-05-17T01:17:56.312Z,97980.22
2019-05-17T01:20:23.531Z,97972.59
2019-05-17T01:22:50.326Z,97973.45
2019-05-17T01:25:17.905Z,97973.33
2019-05-17T01:27:47.220Z,97967.84
2019-05-17T01:30:17.546Z,97974.53
2019-05-17T01:32:46.432Z,97978.49
2019-05-17T01:35:16.509Z,97973.13
2019-05-17T01:37:42.738Z,97974.09
2019-05-17T01:40:10.678Z,97971.89
2019-05-17T01:42:37.684Z,97973.37
2019-05-17T01:45:07.296Z,97973.94
2019-05-17T01:47:36.863Z,97973.08
2019-05-17T01:50:08.494Z,97973.92
2019-05-17T01:52:36.972Z,97972.21
2019-05-17T01:55:06.705Z,97972.45
2019-05-17T01:57:33.634Z,97965.99
2019-05-17T02:00:00.409Z,97969.32
2019-05-17T02:02:29.668Z,97963.72
2019-05-17T02:04:57.066Z,97963.95
2019-05-17T02:07:24.049Z,97963.56
2019-05-17T02:09:51.174Z,97967.80
2019-05-17T02:12:17.971Z,97966.83
2019-05-17T02:14:46.790Z,97963.05
2019-05-17T02:17:14.154Z,97957.92
2019-05-17T02:19:41.208Z,97955.55
2019-05-17T02:22:08.222Z,97953.91
2019-05-17T02:24:37.007Z,97945.81
2019-05-17T02:27:04.670Z,97944.33
2019-05-17T02:29:32.220Z,97947.11
2019-05-17T02:32:03.533Z,97946.22
2019-05-17T02:34:28.607Z,97951.09
2019-05-17T02:36:56.163Z,97945.61
2019-05-17T02:39:23.501Z,97941.84
2019-05-17T02:41:53.175Z,97940.34
2019-05-17T02:44:19.355Z,97939.49
2019-05-17T02:46:46.192Z,97942.19
2019-05-17T02:49:13.885Z,97949.34
2019-05-17T02:51:43.163Z,97945.14
2019-05-17T02:54:13.142Z,97942.06
2019-05-17T02:56:39.324Z,97941.21
2019-05-17T02:59:06.485Z,97943.74
2019-05-17T03:01:33.722Z,97936.18
2019-05-17T03:04:04.006Z,97934.92
2019-05-17T03:06:32.566Z,97933.80
2019-05-17T03:08:58.437Z,97937.25
2019-05-17T03:11:25.709Z,97930.48
2019-05-17T03:13:52.823Z,97930.54
2019-05-17T03:16:23.416Z,97927.44
2019-05-17T03:18:48.877Z,97927.84
2019-05-17T03:21:16.154Z,97923.06
2019-05-17T03:23:43.753Z,97921.85
2019-05-17T03:26:13.043Z,97924.83
2019-05-17T03:28:42.687Z,97925.58
2019-05-17T03:31:11.357Z,97918.84
2019-05-17T03:33:39.135Z,97927.19
2019-05-17T03:36:07.492Z,97924.76
2019-05-17T03:38:34.654Z,97925.48
2019-05-17T03:41:13.489Z,97927.40
2019-05-17T03:43:34.860Z,97925.20
2019-05-17T03:46:02.708Z,97922.73
2019-05-17T03:48:29.028Z,97926.30
2019-05-17T03:50:55.831Z,97924.92
2019-05-17T03:53:23.038Z,97923.78
2019-05-17T03:55:53.753Z,97923.25
2019-05-17T03:58:19.443Z,97927.62
2019-05-17T04:00:46.228Z,97923.08
2019-05-17T04:03:13.745Z,97920.66
2019-05-17T04:05:42.998Z,97913.27
2019-05-17T04:08:13.635Z,97922.95
2019-05-17T04:10:42.381Z,97929.11
2019-05-17T04:13:08.260Z,97927.80
2019-05-17T04:15:35.397Z,97928.20
2019-05-17T04:18:04.114Z,97927.33
2019-05-17T04:20:33.200Z,97932.72
2019-05-17T04:23:04.005Z,97929.16
2019-05-17T04:25:33.086Z,97932.06
2019-05-17T04:27:58.751Z,97927.27
2019-05-17T04:30:25.638Z,97927.26
2019-05-17T04:32:53.010Z,97925.38
2019-05-17T04:35:22.976Z,97929.52
2019-05-17T04:37:49.268Z,97929.77
2019-05-17T04:40:16.242Z,97929.95
2019-05-17T04:42:44.105Z,97930.70
2019-05-17T04:45:12.894Z,97929.57
2019-05-17T04:47:43.693Z,97931.75
2019-05-17T04:50:12.941Z,97927.80
2019-05-17T04:52:42.488Z,97934.75
2019-05-17T04:55:08.286Z,97931.91
2019-05-17T04:57:35.197Z,97926.26
2019-05-17T05:00:07.604Z,97926.72
2019-05-17T05:02:34.522Z,97922.76
2019-05-17T05:05:03.243Z,97920.56
2019-05-17T05:07:33.328Z,97918.57
2019-05-17T05:10:02.659Z,97916.77
2019-05-17T05:12:28.481Z,97916.41
2019-05-17T05:14:55.424Z,97916.21
2019-05-17T05:17:25.589Z,97913.72
2019-05-17T05:19:53.191Z,97912.30
2019-05-17T05:22:22.510Z,97906.01
2019-05-17T05:24:48.880Z,97905.09
2019-05-17T05:27:15.667Z,97906.05
2019-05-17T05:29:44.562Z,97903.84
2019-05-17T05:32:11.910Z,97900.39
2019-05-17T05:34:38.863Z,97898.37
2019-05-17T05:37:06.587Z,97894.62
2019-05-17T05:39:33.944Z,97893.75
2019-05-17T05:42:07.808Z,97896.57
2019-05-17T05:44:31.960Z,97891.27
2019-05-17T05:46:58.964Z,97897.85
2019-05-17T05:49:26.386Z,97898.56
2019-05-17T05:51:53.147Z,97894.91
2019-05-17T05:54:22.401Z,97893.41
2019-05-17T05:56:49.266Z,97895.59
2019-05-17T05:59:16.469Z,97888.45
2019-05-17T06:01:43.474Z,97890.41
2019-05-17T06:04:11.746Z,97878.58
2019-05-17T06:06:38.916Z,97876.88
2019-05-17T06:09:07.835Z,97873.05
2019-05-17T06:11:34.839Z,97870.73
2019-05-17T06:14:01.874Z,97871.48
2019-05-17T06:16:28.618Z,97876.61
2019-05-17T06:18:56.295Z,97873.96
2019-05-17T06:21:24.039Z,97874.85
2019-05-17T06:23:51.652Z,97871.58
2019-05-17T06:26:18.995Z,97872.43
2019-05-17T06:28:46.002Z,97876.20
2019-05-17T06:31:15.162Z,97875.86
2019-05-17T06:33:42.370Z,97872.19
2019-05-17T06:36:09.606Z,97870.42
2019-05-17T06:38:36.754Z,97875.51
2019-05-17T06:41:04.068Z,97875.63
2019-05-17T06:43:32.263Z,97877.80
2019-05-17T06:46:02.081Z,97878.33
2019-05-17T06:48:31.870Z,97880.80
2019-05-17T06:50:59.166Z,97880.16
2019-05-17T06:53:26.318Z,97873.50
2019-05-17T06:55:53.778Z,97870.19
2019-05-17T06:58:22.276Z,97863.70
2019-05-17T07:00:49.742Z,97862.23
2019-05-17T07:03:16.716Z,97863.52
2019-05-17T07:05:45.490Z,97861.24
2019-05-17T07:08:12.507Z,97855.62
2019-05-17T07:10:40.076Z,97862.91
2019-05-17T07:13:07.159Z,97848.91
2019-05-17T07:15:44.696Z,97844.44
2019-05-17T07:18:03.871Z,97850.09
2019-05-17T07:20:30.843Z,97844.74
2019-05-17T07:23:00.396Z,97837.56
2019-05-17T07:25:27.313Z,97831.48
2019-05-17T07:27:54.081Z,97840.59
2019-05-17T07:30:23.025Z,97833.34
2019-05-17T07:32:51.201Z,97839.94
2019-05-17T07:35:19.778Z,97835.64
2019-05-17T07:37:46.854Z,97831.80
2019-05-17T07:40:14.426Z,97822.64
2019-05-17T07:42:41.229Z,97828.19
2019-05-17T07:45:10.163Z,97832.95
2019-05-17T07:47:40.121Z,97824.92
2019-05-17T07:50:10.830Z,97814.81
2019-05-17T07:52:39.565Z,97809.03
2019-05-17T07:55:06.224Z,97818.70
2019-05-17T07:57:33.282Z,97809.95
2019-05-17T08:00:00.196Z,97796.45
2019-05-17T08:02:27.247Z,97786.77
2019-05-17T08:04:54.115Z,97803.20
2019-05-17T08:07:20.989Z,97797.27
2019-05-17T08:09:50.473Z,97798.25
2019-05-17T08:12:17.002Z,97789.41
2019-05-17T08:14:43.944Z,97778.98
2019-05-17T08:17:10.990Z,97786.33
2019-05-17T08:19:40.120Z,97783.53
2019-05-17T08:22:06.862Z,97778.52
2019-05-17T08:24:33.713Z,97773.91
2019-05-17T08:27:01.517Z,97773.22
2019-05-17T08:29:29.724Z,97772.41
2019-05-17T08:31:57.120Z,97768.20
2019-05-17T08:34:49.538Z,97770.97
2019-05-17T08:37:16.418Z,97765.91
2019-05-17T08:39:46.401Z,97761.92
2019-05-17T08:42:13.228Z,97757.02
2019-05-17T08:44:40.148Z,97767.24
2019-05-17T08:47:06.938Z,97763.58
2019-05-17T08:49:34.195Z,97755.08
2019-05-17T08:52:01.024Z,97755.27
2019-05-17T08:54:30.448Z,97758.69
2019-05-17T08:56:57.411Z,97758.53
2019-05-17T08:59:24.352Z,97749.97
2019-05-17T09:01:51.746Z,97746.63
2019-05-17T09:04:20.158Z,97745.19
2019-05-17T09:06:47.408Z,97740.03
2019-05-17T09:09:20.314Z,97747.75
2019-05-17T09:11:47.209Z,97735.37
2019-05-17T09:14:16.363Z,97726.44
2019-05-17T09:16:43.286Z,97719.06
2019-05-17T09:19:10.265Z,97731.02
2019-05-17T09:21:39.573Z,97720.72
2019-05-17T09:24:05.996Z,97721.75
2019-05-17T09:26:32.793Z,97725.97
2019-05-17T09:29:01.280Z,97724.61
2019-05-17T09:31:29.887Z,97721.00
2019-05-17T09:33:57.234Z,97716.34
2019-05-17T09:36:25.000Z,97720.41
2019-05-17T09:38:52.110Z,97720.20
2019-05-17T09:41:20.018Z,97713.87
2019-05-17T09:44:07.721Z,97707.73
2019-05-17T09:46:24.872Z,97704.47
2019-05-17T09:48:51.893Z,97703.66
2019-05-17T09:51:19.594Z,97716.19
2019-05-17T09:53:49.401Z,97706.42
2019-05-17T09:56:16.064Z,97702.52
2019-05-17T09:58:43.339Z,97705.59
2019-05-17T10:01:15.335Z,97702.73
2019-05-17T10:03:42.470Z,97703.02
2019-05-17T10:06:09.761Z,97692.41
2019-05-17T10:08:38.923Z,97689.60
2019-05-17T10:11:09.663Z,97693.83
2019-05-17T10:13:35.087Z,97690.31
2019-05-17T10:16:01.981Z,97686.26
2019-05-17T10:18:29.569Z,97686.95
2019-05-17T10:20:56.546Z,97677.00
2019-05-17T10:23:23.968Z,97685.77
2019-05-17T10:25:50.929Z,97679.86
2019-05-17T10:28:20.347Z,97673.32
2019-05-17T10:30:46.982Z,97670.14
2019-05-17T10:33:13.947Z,97660.24
2019-05-17T10:35:41.680Z,97663.60
2019-05-17T10:38:10.308Z,97661.09
2019-05-17T10:40:40.545Z,97664.52
2019-05-17T10:43:09.834Z,97666.40
2019-05-17T10:45:36.301Z,97658.15
2019-05-17T10:48:03.766Z,97657.63
2019-05-17T10:50:30.772Z,97658.30
2019-05-17T10:53:00.217Z,97656.23
2019-05-17T10:55:26.874Z,97658.88
2019-05-17T10:57:53.684Z,97645.77
2019-05-17T11:00:21.477Z,97650.85
2019-05-17T11:02:53.132Z,97648.33
2019-05-17T11:05:19.941Z,97651.70
2019-05-17T11:07:53.902Z,97646.41
2019-05-17T11:10:20.829Z,97645.39
2019-05-17T11:12:48.031Z,97647.42
2019-05-17T11:15:15.215Z,97643.67
2019-05-17T11:17:42.893Z,97635.39
2019-05-17T11:20:10.965Z,97632.84
2019-05-17T11:22:37.955Z,97618.97
2019-05-17T11:25:05.698Z,97621.55
2019-05-17T11:27:32.875Z,97616.64
2019-05-17T11:30:00.017Z,97631.96
2019-05-17T11:32:26.739Z,97627.43
2019-05-17T11:34:54.247Z,97626.42
2019-05-17T11:37:21.110Z,97628.39
2019-05-17T11:39:48.483Z,97624.07
2019-05-17T11:42:15.478Z,97627.42
2019-05-17T11:44:44.531Z,97628.20
2019-05-17T11:47:11.415Z,97628.81
2019-05-17T11:49:38.250Z,97626.07
2019-05-17T11:52:05.564Z,97615.24
2019-05-17T11:54:32.860Z,97629.97
2019-05-17T11:56:59.689Z,97625.84
2019-05-17T11:59:26.471Z,97618.92
2019-05-17T12:01:53.444Z,97618.88
2019-05-17T12:04:20.637Z,97602.94
2019-05-17T12:06:47.797Z,97609.75
2019-05-17T12:09:15.157Z,97610.08
2019-05-17T12:11:41.994Z,97610.33
2019-05-17T12:14:10.505Z,97605.43
2019-05-17T12:16:37.647Z,97599.46
2019-05-17T12:19:04.656Z,97609.27
2019-05-17T12:21:31.651Z,97607.11
2019-05-17T12:23:58.605Z,97607.30
2019-05-17T12:26:25.540Z,97594.41
2019-05-17T12:28:52.442Z,97593.41
2019-05-17T12:31:21.452Z,97583.95
2019-05-17T12:33:48.868Z,97582.24
2019-05-17T12:36:16.181Z,97582.95
2019-05-17T12:38:43.069Z,97584.90
2019-05-17T12:41:11.042Z,97576.08
2019-05-17T12:43:37.840Z,97581.56
2019-05-17T12:46:05.252Z,97584.33
2019-05-17T12:48:32.109Z,97593.94
2019-05-17T12:50:59.396Z,97601.26
2019-05-17T12:53:26.278Z,97593.05
2019-05-17T12:55:53.379Z,97580.80
2019-05-17T12:58:20.379Z,97587.56
2019-05-17T13:00:47.605Z,97580.64
2019-05-17T13:03:14.346Z,97581.59
2019-05-17T13:05:41.240Z,97574.25
2019-05-17T13:08:08.184Z,97566.09
2019-05-17T13:10:35.259Z,97570.91
2019-05-17T13:13:02.410Z,97570.59
2019-05-17T13:15:29.408Z,97569.69
2019-05-17T13:17:57.443Z,97573.55
2019-05-17T13:20:24.523Z,97577.17
2019-05-17T13:22:53.935Z,97578.02
2019-05-17T13:25:20.992Z,97575.06
2019-05-17T13:27:48.325Z,97575.49
2019-05-17T13:30:16.595Z,97577.08
2019-05-17T13:32:43.595Z,97579.47
2019-05-17T13:35:11.472Z,97580.25
2019-05-17T13:37:38.371Z,97577.50
2019-05-17T13:40:22.103Z,97576.52
2019-05-17T13:42:40.250Z,97578.67
2019-05-17T13:45:08.224Z,97572.73
2019-05-17T13:47:35.265Z,97583.89
2019-05-17T13:50:07.408Z,97570.57
2019-05-17T13:52:34.828Z,97572.75
2019-05-17T13:55:06.077Z,97574.25
2019-05-17T13:57:33.392Z,97573.30
2019-05-17T14:00:00.371Z,97568.41
2019-05-17T14:02:27.356Z,97574.70
2019-05-17T14:04:54.312Z,97567.25
2019-05-17T14:07:24.530Z,97574.33
2019-05-17T14:09:51.293Z,97575.14
2019-05-17T14:12:18.166Z,97575.55
2019-05-17T14:14:44.936Z,97576.33
2019-05-17T14:17:11.726Z,97575.92
2019-05-17T14:19:43.075Z,97578.03
2019-05-17T14:22:10.353Z,97580.19
2019-05-17T14:24:37.685Z,97585.70
2019-05-17T14:27:04.928Z,97592.16
2019-05-17T14:29:31.972Z,97589.58
2019-05-17T14:32:01.341Z,97602.52
2019-05-17T14:34:28.236Z,97607.95
2019-05-17T14:36:55.092Z,97640.64
2019-05-17T14:39:22.795Z,97657.31
2019-05-17T14:41:49.733Z,97646.91
2019-05-17T14:44:16.745Z,97636.67
2019-05-17T14:46:44.049Z,97617.47
2019-05-17T14:49:11.012Z,97611.59
2019-05-17T14:51:37.804Z,97611.20
2019-05-17T14:54:06.879Z,97615.03
2019-05-17T14:56:33.727Z,97626.56
2019-05-17T14:59:00.829Z,97628.03
2019-05-17T15:01:27.929Z,97624.69
2019-05-17T15:03:54.849Z,97621.08
2019-05-17T15:06:21.822Z,97621.01
2019-05-17T15:08:48.878Z,97622.77
2019-05-17T15:11:18.147Z,97625.69
2019-05-17T15:13:45.550Z,97631.34
2019-05-17T15:16:12.600Z,97624.95
2019-05-17T15:18:39.431Z,97620.41
2019-05-17T15:21:06.670Z,97619.61
2019-05-17T15:23:33.982Z,97618.91
2019-05-17T15:26:01.322Z,97621.56
2019-05-17T15:28:28.210Z,97622.30
2019-05-17T15:30:55.153Z,97618.93
2019-05-17T15:33:22.140Z,97622.75
2019-05-17T15:35:49.151Z,97630.81
2019-05-17T15:38:16.180Z,97642.09
2019-05-17T15:40:44.911Z,97634.06
2019-05-17T15:43:12.009Z,97636.91
2019-05-17T15:45:41.068Z,97627.25
2019-05-17T15:48:10.172Z,97620.93
2019-05-17T15:50:37.373Z,97620.93
2019-05-17T15:53:04.507Z,97618.62
2019-05-17T15:55:31.629Z,97616.08
2019-05-17T15:57:58.600Z,97617.13
2019-05-17T16:00:25.598Z,97616.50
2019-05-17T16:02:52.564Z,97611.02
2019-05-17T16:05:19.349Z,97612.81
2019-05-17T16:07:46.150Z,97613.80
2019-05-17T16:10:13.657Z,97614.84
2019-05-17T16:12:40.719Z,97618.72
2019-05-17T16:15:08.712Z,97611.70
2019-05-17T16:17:38.870Z,97611.73
2019-05-17T16:20:10.350Z,97609.64
2019-05-17T16:22:37.410Z,97607.61
2019-05-17T16:25:05.937Z,97615.23
2019-05-17T16:27:33.089Z,97611.41
2019-05-17T16:30:00.043Z,97614.87
2019-05-17T16:32:27.256Z,97601.86
2019-05-17T16:34:54.306Z,97599.50
2019-05-17T16:37:21.550Z,97598.77
2019-05-17T16:39:48.565Z,97599.30
2019-05-17T16:42:15.473Z,97603.61
2019-05-17T16:44:42.412Z,97601.45
2019-05-17T16:47:11.372Z,97594.99
2019-05-17T16:49:38.471Z,97590.25
2019-05-17T16:52:05.482Z,97589.73
2019-05-17T16:54:32.854Z,97591.56
2019-05-17T16:57:02.778Z,97592.05
2019-05-17T16:59:29.836Z,97589.14
2019-05-17T17:01:58.004Z,97579.63
2019-05-17T17:04:25.004Z,97578.27
2019-05-17T17:06:52.082Z,97569.31
2019-05-17T17:09:19.509Z,97579.45
2019-05-17T17:11:46.981Z,97579.10
2019-05-17T17:14:13.961Z,97578.89
2019-05-17T17:16:40.956Z,97586.16
2019-05-17T17:19:08.049Z,97588.94
2019-05-17T17:21:38.258Z,97584.20
2019-05-17T17:24:08.412Z,97585.25
2019-05-17T17:26:35.677Z,97585.87
2019-05-17T17:29:03.359Z,97585.27
2019-05-17T17:31:32.570Z,97586.47
2019-05-17T17:33:59.487Z,97584.57
2019-05-17T17:36:26.444Z,97585.94
2019-05-17T17:38:53.837Z,97580.99
2019-05-17T17:41:21.215Z,97589.98
2019-05-17T17:43:57.993Z,97591.03
2019-05-17T17:46:17.738Z,97596.78
2019-05-17T17:48:45.890Z,97599.31
2019-05-17T17:51:13.270Z,97595.84
2019-05-17T17:53:40.252Z,97602.47
2019-05-17T17:56:07.445Z,97602.28
2019-05-17T17:58:34.723Z,97601.81
2019-05-17T18:01:02.282Z,97604.65
2019-05-17T18:03:31.737Z,97606.75
2019-05-17T18:06:03.665Z,97603.89
2019-05-17T18:08:29.186Z,97602.01
2019-05-17T18:10:56.093Z,97602.22
2019-05-17T18:13:23.393Z,97599.87
2019-05-17T18:15:50.629Z,97600.73
2019-05-17T18:18:17.587Z,97601.11
2019-05-17T18:20:45.109Z,97601.45
2019-05-17T18:23:12.332Z,97603.50
2019-05-17T18:25:42.205Z,97601.33
2019-05-17T18:28:11.244Z,97604.95
2019-05-17T18:30:38.879Z,97612.50
2019-05-17T18:33:06.274Z,97611.22
2019-05-17T18:35:34.262Z,97614.38
2019-05-17T18:38:01.664Z,97609.42
2019-05-17T18:40:30.067Z,97608.84
2019-05-17T18:42:57.265Z,97610.72
2019-05-17T18:45:24.774Z,97613.37
2019-05-17T18:47:51.901Z,97616.77
2019-05-17T18:50:20.835Z,97614.03
2019-05-17T18:52:48.093Z,97621.41
2019-05-17T18:55:16.958Z,97623.44
2019-05-17T18:57:43.849Z,97624.09
2019-05-17T19:00:11.746Z,97622.87
2019-05-17T19:02:38.927Z,97629.70
2019-05-17T19:05:07.875Z,97629.24
2019-05-17T19:07:35.025Z,97626.00
2019-05-17T19:10:04.857Z,97628.23
2019-05-17T19:12:31.886Z,97628.23
2019-05-17T19:15:00.709Z,97627.30
2019-05-17T19:17:27.887Z,97629.09
2019-05-17T19:19:54.749Z,97639.14
2019-05-17T19:22:21.899Z,97638.93
2019-05-17T19:24:48.890Z,97639.05
2019-05-17T19:27:15.791Z,97653.69
2019-05-17T19:29:43.322Z,97654.81
2019-05-17T19:32:10.430Z,97654.37
2019-05-17T19:34:39.347Z,97659.64
2019-05-17T19:37:06.532Z,97657.19
2019-05-17T19:39:33.658Z,97662.44
2019-05-17T19:42:00.571Z,97667.19
2019-05-17T19:44:27.602Z,97676.41
2019-05-17T19:46:54.459Z,97674.59
2019-05-17T19:49:21.535Z,97680.72
2019-05-17T19:51:48.431Z,97678.94
2019-05-17T19:54:15.703Z,97680.78
2019-05-17T19:56:42.672Z,97691.75
2019-05-17T19:59:09.844Z,97689.19
2019-05-17T20:01:36.842Z,97687.27
2019-05-17T20:04:03.780Z,97689.02
2019-05-17T20:06:33.949Z,97689.39
2019-05-17T20:09:01.403Z,97696.41
2019-05-17T20:11:34.464Z,97694.30
2019-05-17T20:14:00.758Z,97701.16
2019-05-17T20:16:27.854Z,97705.37
2019-05-17T20:18:54.835Z,97707.83
2019-05-17T20:21:21.864Z,97707.58
2019-05-17T20:23:49.064Z,97715.94
2019-05-17T20:26:15.910Z,97728.51
2019-05-17T20:28:42.835Z,97718.30
2019-05-17T20:31:09.906Z,97717.59
2019-05-17T20:33:37.248Z,97717.86
2019-05-17T20:36:04.217Z,97715.86
2019-05-17T20:38:31.071Z,97712.91
2019-05-17T20:40:58.655Z,97716.97
2019-05-17T20:43:25.617Z,97715.97
2019-05-17T20:45:52.888Z,97717.89
2019-05-17T20:48:19.766Z,97718.92
2019-05-17T20:50:47.265Z,97721.13
2019-05-17T20:53:18.723Z,97715.45
2019-05-17T20:55:45.067Z,97723.20
2019-05-17T20:58:11.927Z,97722.23
2019-05-17T21:00:39.407Z,97720.88
2019-05-17T21:03:06.858Z,97718.41
2019-05-17T21:05:34.091Z,97718.99
2019-05-17T21:08:01.872Z,97724.30
2019-05-17T21:10:28.891Z,97715.68
2019-05-17T21:12:55.957Z,97719.80
2019-05-17T21:15:22.830Z,97717.92
2019-05-17T21:17:49.749Z,97717.98
2019-05-17T21:20:16.989Z,97714.56
2019-05-17T21:22:43.838Z,97716.27
2019-05-17T21:25:11.641Z,97713.09
2019-05-17T21:27:39.239Z,97712.06
2019-05-17T21:30:06.856Z,97709.17
2019-05-17T21:32:34.141Z,97712.70
2019-05-17T21:35:02.209Z,97721.59
2019-05-17T21:37:29.248Z,97719.90
2019-05-17T21:39:56.260Z,97718.38
2019-05-17T21:42:23.280Z,97714.31
2019-05-17T21:44:50.376Z,97721.55
2019-05-17T21:47:17.268Z,97722.46
2019-05-17T21:49:45.062Z,97723.83
2019-05-17T21:52:12.188Z,97719.49
2019-05-17T21:54:39.256Z,97718.38
2019-05-17T21:57:08.164Z,97722.89
2019-05-17T21:59:35.268Z,97716.66
2019-05-17T22:02:02.345Z,97719.23
2019-05-17T22:04:29.731Z,97727.22
2019-05-17T22:06:56.816Z,97719.05
2019-05-17T22:09:24.035Z,97726.55
2019-05-17T22:11:53.357Z,97726.78
2019-05-17T22:14:20.526Z,97728.03
2019-05-17T22:16:47.551Z,97721.01
2019-05-17T22:19:14.413Z,97722.23
2019-05-17T22:21:41.382Z,97726.55
2019-05-17T22:24:08.503Z,97733.36
2019-05-17T22:26:35.288Z,97729.52
2019-05-17T22:29:02.739Z,97734.88
2019-05-17T22:31:29.963Z,97727.92
2019-05-17T22:33:56.935Z,97726.47
2019-05-17T22:36:24.121Z,97725.68
2019-05-17T22:38:51.075Z,97730.80
2019-05-17T22:41:17.888Z,97723.76
2019-05-17T22:43:44.858Z,97727.25
2019-05-17T22:46:14.330Z,97727.94
2019-05-17T22:48:41.535Z,97729.30
2019-05-17T22:51:08.449Z,97732.25
2019-05-17T22:53:35.270Z,97733.62
2019-05-17T22:56:02.384Z,97731.58
2019-05-17T22:58:30.461Z,97731.48
2019-05-17T23:00:57.712Z,97732.25
2019-05-17T23:03:24.521Z,97731.10
2019-05-17T23:05:53.372Z,97736.98
2019-05-17T23:08:20.215Z,97732.80
2019-05-17T23:10:47.250Z,97742.55
2019-05-17T23:13:14.328Z,97741.98
2019-05-17T23:16:00.674Z,97747.22
2019-05-17T23:18:30.161Z,97742.00
2019-05-17T23:20:57.146Z,97745.86
2019-05-17T23:23:24.113Z,97752.80
2019-05-17T23:25:51.361Z,97749.49
2019-05-17T23:28:18.415Z,97747.45
2019-05-17T23:30:45.576Z,97735.88
2019-05-17T23:33:12.511Z,97740.31
2019-05-17T23:35:39.455Z,97738.03
2019-05-17T23:38:08.795Z,97734.95
2019-05-17T23:40:36.015Z,97745.52
2019-05-17T23:43:03.027Z,97744.63
2019-05-17T23:45:32.666Z,97748.12
2019-05-17T23:47:59.554Z,97742.81
2019-05-17T23:50:26.430Z,97746.77
2019-05-17T23:52:53.995Z,97745.41
2019-05-17T23:55:21.207Z,97745.63
2019-05-17T23:57:48.262Z,97750.30
